sensor_id;sensor_type;location;lat;lon;timestamp;temperature;humidity
4813;DHT22;2420;51.202;8.698;2023-05-16T00:01:55;12.00;1.00
4813;DHT22;2420;51.202;8.698;2023-05-16T00:04:21;12.10;1.00
4813;DHT22;2420;51.202;8.698;2023-05-16T00:06:48;12.00;1.00
4813;DHT22;2420;51.202;8.698;2023-05-16T00:09:13;12.10;1.00
4813;DHT22;2420;51.202;8.698;2023-05-16T00:11:39;12.10;1.00
4813;DHT22;2420;51.202;8.698;2023-05-16T00:14:04;12.10;1.00
4813;DHT22;2420;51.202;8.698;2023-05-16T00:16:30;12.10;1.00
4813;DHT22;2420;51.202;8.698;2023-05-16T00:18:56;12.10;1.00
4813;DHT22;2420;51.202;8.698;2023-05-16T00:21:25;12.10;1.00
4813;DHT22;2420;51.202;8.698;2023-05-16T00:23:50;12.10;1.00
4813;DHT22;2420;51.202;8.698;2023-05-16T00:26:17;11.90;1.00
4813;DHT22;2420;51.202;8.698;2023-05-16T00:28:43;11.80;1.00
4813;DHT22;2420;51.202;8.698;2023-05-16T00:31:08;11.80;1.00
4813;DHT22;2420;51.202;8.698;2023-05-16T00:33:34;11.70;1.00
4813;DHT22;2420;51.202;8.698;2023-05-16T00:36:00;11.70;1.00
4813;DHT22;2420;51.202;8.698;2023-05-16T00:38:25;11.70;1.00
4813;DHT22;2420;51.202;8.698;2023-05-16T00:40:51;11.70;1.00
4813;DHT22;2420;51.202;8.698;2023-05-16T00:43:17;11.60;1.00
4813;DHT22;2420;51.202;8.698;2023-05-16T00:45:42;11.70;1.00
4813;DHT22;2420;51.202;8.698;2023-05-16T00:48:09;11.70;1.00
4813;DHT22;2420;51.202;8.698;2023-05-16T00:50:36;11.70;1.00
4813;DHT22;2420;51.202;8.698;2023-05-16T00:53:02;11.90;1.00
4813;DHT22;2420;51.202;8.698;2023-05-16T00:55:27;11.90;1.00
4813;DHT22;2420;51.202;8.698;2023-05-16T00:57:53;11.90;1.00
4813;DHT22;2420;51.202;8.698;2023-05-16T01:00:19;11.80;1.00
4813;DHT22;2420;51.202;8.698;2023-05-16T01:02:45;11.70;1.00
4813;DHT22;2420;51.202;8.698;2023-05-16T01:05:11;11.60;1.00
4813;DHT22;2420;51.202;8.698;2023-05-16T01:07:37;11.60;1.00
4813;DHT22;2420;51.202;8.698;2023-05-16T01:10:05;11.60;1.00
4813;DHT22;2420;51.202;8.698;2023-05-16T01:15:35;11.60;1.00
4813;DHT22;2420;51.202;8.698;2023-05-16T01:18:22;11.60;1.00
4813;DHT22;2420;51.202;8.698;2023-05-16T01:20:58;11.60;1.00
4813;DHT22;2420;51.202;8.698;2023-05-16T01:23:51;11.50;1.00
4813;DHT22;2420;51.202;8.698;2023-05-16T01:26:26;11.40;1.00
4813;DHT22;2420;51.202;8.698;2023-05-16T01:28:52;11.40;1.00
4813;DHT22;2420;51.202;8.698;2023-05-16T01:31:19;11.40;1.00
4813;DHT22;2420;51.202;8.698;2023-05-16T01:33:45;11.50;1.00
4813;DHT22;2420;51.202;8.698;2023-05-16T01:41:54;11.30;1.00
4813;DHT22;2420;51.202;8.698;2023-05-16T01:47:13;11.10;1.00
4813;DHT22;2420;51.202;8.698;2023-05-16T01:49:45;11.00;1.00
4813;DHT22;2420;51.202;8.698;2023-05-16T01:52:15;11.00;1.00
4813;DHT22;2420;51.202;8.698;2023-05-16T01:54:44;10.80;1.00
4813;DHT22;2420;51.202;8.698;2023-05-16T01:57:12;10.80;1.00
4813;DHT22;2420;51.202;8.698;2023-05-16T01:59:38;10.70;1.00
4813;DHT22;2420;51.202;8.698;2023-05-16T02:02:04;10.70;1.00
4813;DHT22;2420;51.202;8.698;2023-05-16T02:04:30;10.60;1.00
4813;DHT22;2420;51.202;8.698;2023-05-16T02:06:56;10.70;1.00
4813;DHT22;2420;51.202;8.698;2023-05-16T02:09:21;10.70;1.00
4813;DHT22;2420;51.202;8.698;2023-05-16T02:11:47;10.70;1.00
4813;DHT22;2420;51.202;8.698;2023-05-16T02:14:13;10.70;1.00
4813;DHT22;2420;51.202;8.698;2023-05-16T02:16:39;10.70;1.00
4813;DHT22;2420;51.202;8.698;2023-05-16T02:19:04;10.70;1.00
4813;DHT22;2420;51.202;8.698;2023-05-16T02:21:30;10.80;1.00
4813;DHT22;2420;51.202;8.698;2023-05-16T02:23:55;10.70;1.00
4813;DHT22;2420;51.202;8.698;2023-05-16T02:26:21;10.50;1.00
4813;DHT22;2420;51.202;8.698;2023-05-16T02:28:47;10.30;1.00
4813;DHT22;2420;51.202;8.698;2023-05-16T02:31:31;10.10;1.00
4813;DHT22;2420;51.202;8.698;2023-05-16T02:33:57;9.90;1.00
4813;DHT22;2420;51.202;8.698;2023-05-16T02:36:23;9.90;1.00
4813;DHT22;2420;51.202;8.698;2023-05-16T02:38:49;9.80;1.00
4813;DHT22;2420;51.202;8.698;2023-05-16T02:41:15;9.90;1.00
4813;DHT22;2420;51.202;8.698;2023-05-16T02:43:40;10.00;1.00
4813;DHT22;2420;51.202;8.698;2023-05-16T02:48:50;10.00;1.00
4813;DHT22;2420;51.202;8.698;2023-05-16T02:51:16;10.00;1.00
4813;DHT22;2420;51.202;8.698;2023-05-16T02:53:42;10.00;1.00
4813;DHT22;2420;51.202;8.698;2023-05-16T02:56:07;10.10;1.00
4813;DHT22;2420;51.202;8.698;2023-05-16T02:58:34;10.20;1.00
4813;DHT22;2420;51.202;8.698;2023-05-16T03:01:00;10.10;1.00
4813;DHT22;2420;51.202;8.698;2023-05-16T03:03:26;10.20;1.00
4813;DHT22;2420;51.202;8.698;2023-05-16T03:05:51;10.30;1.00
4813;DHT22;2420;51.202;8.698;2023-05-16T03:08:17;10.20;1.00
4813;DHT22;2420;51.202;8.698;2023-05-16T03:10:43;10.20;1.00
4813;DHT22;2420;51.202;8.698;2023-05-16T03:13:08;10.10;1.00
4813;DHT22;2420;51.202;8.698;2023-05-16T03:15:34;10.10;1.00
4813;DHT22;2420;51.202;8.698;2023-05-16T03:17:59;10.10;1.00
4813;DHT22;2420;51.202;8.698;2023-05-16T03:20:25;10.00;1.00
4813;DHT22;2420;51.202;8.698;2023-05-16T03:22:51;10.00;1.00
4813;DHT22;2420;51.202;8.698;2023-05-16T03:25:16;9.90;1.00
4813;DHT22;2420;51.202;8.698;2023-05-16T03:27:42;9.90;1.00
4813;DHT22;2420;51.202;8.698;2023-05-16T03:30:08;9.80;1.00
4813;DHT22;2420;51.202;8.698;2023-05-16T03:32:33;9.80;1.00
4813;DHT22;2420;51.202;8.698;2023-05-16T03:34:59;9.80;1.00
4813;DHT22;2420;51.202;8.698;2023-05-16T03:37:24;9.80;1.00
4813;DHT22;2420;51.202;8.698;2023-05-16T03:39:50;9.80;1.00
4813;DHT22;2420;51.202;8.698;2023-05-16T03:42:16;9.80;1.00
4813;DHT22;2420;51.202;8.698;2023-05-16T03:44:43;9.80;1.00
4813;DHT22;2420;51.202;8.698;2023-05-16T03:47:08;9.70;1.00
4813;DHT22;2420;51.202;8.698;2023-05-16T03:49:34;9.80;1.00
4813;DHT22;2420;51.202;8.698;2023-05-16T03:52:02;9.80;1.00
4813;DHT22;2420;51.202;8.698;2023-05-16T03:54:28;9.90;1.00
4813;DHT22;2420;51.202;8.698;2023-05-16T03:56:53;9.90;1.00
4813;DHT22;2420;51.202;8.698;2023-05-16T03:59:19;9.90;1.00
4813;DHT22;2420;51.202;8.698;2023-05-16T04:01:44;9.90;1.00
4813;DHT22;2420;51.202;8.698;2023-05-16T04:04:10;9.90;1.00
4813;DHT22;2420;51.202;8.698;2023-05-16T04:06:35;9.90;1.00
4813;DHT22;2420;51.202;8.698;2023-05-16T04:09:01;10.00;1.00
4813;DHT22;2420;51.202;8.698;2023-05-16T04:11:26;10.00;1.00
4813;DHT22;2420;51.202;8.698;2023-05-16T04:13:52;10.10;1.00
4813;DHT22;2420;51.202;8.698;2023-05-16T04:16:18;10.10;1.00
4813;DHT22;2420;51.202;8.698;2023-05-16T04:18:44;10.00;1.00
4813;DHT22;2420;51.202;8.698;2023-05-16T04:21:10;10.10;1.00
4813;DHT22;2420;51.202;8.698;2023-05-16T04:23:39;10.10;1.00
4813;DHT22;2420;51.202;8.698;2023-05-16T04:26:05;10.20;1.00
4813;DHT22;2420;51.202;8.698;2023-05-16T04:28:31;10.20;1.00
4813;DHT22;2420;51.202;8.698;2023-05-16T04:30:56;10.20;1.00
4813;DHT22;2420;51.202;8.698;2023-05-16T04:33:22;9.80;1.00
4813;DHT22;2420;51.202;8.698;2023-05-16T04:35:47;9.70;1.00
4813;DHT22;2420;51.202;8.698;2023-05-16T04:38:14;9.70;1.00
4813;DHT22;2420;51.202;8.698;2023-05-16T04:40:40;9.60;1.00
4813;DHT22;2420;51.202;8.698;2023-05-16T04:43:08;9.50;1.00
4813;DHT22;2420;51.202;8.698;2023-05-16T04:45:34;9.30;1.00
4813;DHT22;2420;51.202;8.698;2023-05-16T04:48:00;9.20;1.00
4813;DHT22;2420;51.202;8.698;2023-05-16T04:50:25;9.10;1.00
4813;DHT22;2420;51.202;8.698;2023-05-16T04:52:51;9.10;1.00
4813;DHT22;2420;51.202;8.698;2023-05-16T04:55:17;8.90;1.00
4813;DHT22;2420;51.202;8.698;2023-05-16T04:57:42;9.00;1.00
4813;DHT22;2420;51.202;8.698;2023-05-16T05:00:08;8.90;1.00
4813;DHT22;2420;51.202;8.698;2023-05-16T05:02:36;8.80;1.00
4813;DHT22;2420;51.202;8.698;2023-05-16T05:05:03;8.70;1.00
4813;DHT22;2420;51.202;8.698;2023-05-16T05:07:29;8.60;1.00
4813;DHT22;2420;51.202;8.698;2023-05-16T05:09:54;8.60;1.00
4813;DHT22;2420;51.202;8.698;2023-05-16T05:12:23;8.70;1.00
4813;DHT22;2420;51.202;8.698;2023-05-16T05:14:49;8.80;1.00
4813;DHT22;2420;51.202;8.698;2023-05-16T05:17:16;8.70;1.00
4813;DHT22;2420;51.202;8.698;2023-05-16T05:19:42;8.70;1.00
4813;DHT22;2420;51.202;8.698;2023-05-16T05:22:07;8.80;1.00
4813;DHT22;2420;51.202;8.698;2023-05-16T05:24:33;8.90;1.00
4813;DHT22;2420;51.202;8.698;2023-05-16T05:26:59;8.90;1.00
4813;DHT22;2420;51.202;8.698;2023-05-16T05:29:24;8.90;1.00
4813;DHT22;2420;51.202;8.698;2023-05-16T05:31:50;8.90;1.00
4813;DHT22;2420;51.202;8.698;2023-05-16T05:34:16;8.90;1.00
4813;DHT22;2420;51.202;8.698;2023-05-16T05:36:41;8.90;1.00
4813;DHT22;2420;51.202;8.698;2023-05-16T05:39:07;8.90;1.00
4813;DHT22;2420;51.202;8.698;2023-05-16T05:41:32;9.00;1.00
4813;DHT22;2420;51.202;8.698;2023-05-16T05:44:01;9.00;1.00
4813;DHT22;2420;51.202;8.698;2023-05-16T05:46:27;9.20;1.00
4813;DHT22;2420;51.202;8.698;2023-05-16T05:48:52;9.30;1.00
4813;DHT22;2420;51.202;8.698;2023-05-16T05:51:18;9.30;1.00
4813;DHT22;2420;51.202;8.698;2023-05-16T05:53:44;9.10;1.00
4813;DHT22;2420;51.202;8.698;2023-05-16T05:56:09;9.00;1.00
4813;DHT22;2420;51.202;8.698;2023-05-16T05:58:35;9.10;1.00
4813;DHT22;2420;51.202;8.698;2023-05-16T06:01:01;9.10;1.00
4813;DHT22;2420;51.202;8.698;2023-05-16T06:03:26;9.20;1.00
4813;DHT22;2420;51.202;8.698;2023-05-16T06:05:52;9.10;1.00
4813;DHT22;2420;51.202;8.698;2023-05-16T06:08:18;9.00;1.00
4813;DHT22;2420;51.202;8.698;2023-05-16T06:10:43;8.90;1.00
4813;DHT22;2420;51.202;8.698;2023-05-16T06:13:09;8.80;1.00
4813;DHT22;2420;51.202;8.698;2023-05-16T06:15:34;8.90;1.00
4813;DHT22;2420;51.202;8.698;2023-05-16T06:18:00;8.90;1.00
4813;DHT22;2420;51.202;8.698;2023-05-16T06:20:26;9.00;1.00
4813;DHT22;2420;51.202;8.698;2023-05-16T06:22:51;9.10;1.00
4813;DHT22;2420;51.202;8.698;2023-05-16T06:25:17;9.20;1.00
4813;DHT22;2420;51.202;8.698;2023-05-16T06:27:43;9.30;1.00
4813;DHT22;2420;51.202;8.698;2023-05-16T06:30:08;9.30;1.00
4813;DHT22;2420;51.202;8.698;2023-05-16T06:32:34;9.40;1.00
4813;DHT22;2420;51.202;8.698;2023-05-16T06:35:00;9.40;1.00
4813;DHT22;2420;51.202;8.698;2023-05-16T06:37:25;9.30;1.00
4813;DHT22;2420;51.202;8.698;2023-05-16T06:39:51;9.30;1.00
4813;DHT22;2420;51.202;8.698;2023-05-16T06:42:17;9.30;1.00
4813;DHT22;2420;51.202;8.698;2023-05-16T06:44:43;9.40;1.00
4813;DHT22;2420;51.202;8.698;2023-05-16T06:47:09;9.60;1.00
4813;DHT22;2420;51.202;8.698;2023-05-16T06:49:34;9.70;1.00
4813;DHT22;2420;51.202;8.698;2023-05-16T06:52:00;9.80;1.00
4813;DHT22;2420;51.202;8.698;2023-05-16T06:54:26;9.60;1.00
4813;DHT22;2420;51.202;8.698;2023-05-16T06:56:52;9.50;1.00
4813;DHT22;2420;51.202;8.698;2023-05-16T06:59:17;9.40;1.00
4813;DHT22;2420;51.202;8.698;2023-05-16T07:01:43;9.20;1.00
4813;DHT22;2420;51.202;8.698;2023-05-16T07:04:08;9.00;1.00
4813;DHT22;2420;51.202;8.698;2023-05-16T07:06:34;9.00;1.00
4813;DHT22;2420;51.202;8.698;2023-05-16T07:09:00;9.00;1.00
4813;DHT22;2420;51.202;8.698;2023-05-16T07:11:26;9.00;1.00
4813;DHT22;2420;51.202;8.698;2023-05-16T07:13:52;9.00;1.00
4813;DHT22;2420;51.202;8.698;2023-05-16T07:16:17;9.20;1.00
4813;DHT22;2420;51.202;8.698;2023-05-16T07:18:43;9.20;1.00
4813;DHT22;2420;51.202;8.698;2023-05-16T07:21:08;9.30;1.00
4813;DHT22;2420;51.202;8.698;2023-05-16T07:23:34;9.30;1.00
4813;DHT22;2420;51.202;8.698;2023-05-16T07:25:59;9.30;1.00
4813;DHT22;2420;51.202;8.698;2023-05-16T07:28:25;9.40;1.00
4813;DHT22;2420;51.202;8.698;2023-05-16T07:30:51;9.40;1.00
4813;DHT22;2420;51.202;8.698;2023-05-16T07:33:16;9.40;1.00
4813;DHT22;2420;51.202;8.698;2023-05-16T07:35:42;9.50;1.00
4813;DHT22;2420;51.202;8.698;2023-05-16T07:38:08;9.50;1.00
4813;DHT22;2420;51.202;8.698;2023-05-16T07:40:33;9.40;1.00
4813;DHT22;2420;51.202;8.698;2023-05-16T07:42:59;9.30;1.00
4813;DHT22;2420;51.202;8.698;2023-05-16T07:45:24;9.30;1.00
4813;DHT22;2420;51.202;8.698;2023-05-16T07:47:50;9.30;1.00
4813;DHT22;2420;51.202;8.698;2023-05-16T07:50:16;9.20;1.00
4813;DHT22;2420;51.202;8.698;2023-05-16T07:52:41;9.10;1.00
4813;DHT22;2420;51.202;8.698;2023-05-16T07:55:07;8.90;1.00
4813;DHT22;2420;51.202;8.698;2023-05-16T07:57:33;8.90;1.00
4813;DHT22;2420;51.202;8.698;2023-05-16T07:59:58;8.90;1.00
4813;DHT22;2420;51.202;8.698;2023-05-16T08:02:24;8.90;1.00
4813;DHT22;2420;51.202;8.698;2023-05-16T08:04:55;9.10;1.00
4813;DHT22;2420;51.202;8.698;2023-05-16T08:07:21;9.30;1.00
4813;DHT22;2420;51.202;8.698;2023-05-16T08:09:47;9.40;1.00
4813;DHT22;2420;51.202;8.698;2023-05-16T08:12:12;9.40;1.00
4813;DHT22;2420;51.202;8.698;2023-05-16T08:14:38;9.30;1.00
4813;DHT22;2420;51.202;8.698;2023-05-16T08:17:03;9.40;1.00
4813;DHT22;2420;51.202;8.698;2023-05-16T08:19:29;9.50;1.00
4813;DHT22;2420;51.202;8.698;2023-05-16T08:21:57;9.70;1.00
4813;DHT22;2420;51.202;8.698;2023-05-16T08:24:22;9.80;1.00
4813;DHT22;2420;51.202;8.698;2023-05-16T08:26:48;9.90;1.00
4813;DHT22;2420;51.202;8.698;2023-05-16T08:29:13;10.00;1.00
4813;DHT22;2420;51.202;8.698;2023-05-16T08:31:39;10.10;1.00
4813;DHT22;2420;51.202;8.698;2023-05-16T08:34:05;10.30;1.00
4813;DHT22;2420;51.202;8.698;2023-05-16T08:36:31;10.30;1.00
4813;DHT22;2420;51.202;8.698;2023-05-16T08:38:59;10.50;1.00
4813;DHT22;2420;51.202;8.698;2023-05-16T08:41:24;10.60;1.00
4813;DHT22;2420;51.202;8.698;2023-05-16T08:43:51;10.50;1.00
4813;DHT22;2420;51.202;8.698;2023-05-16T08:46:21;10.60;1.00
4813;DHT22;2420;51.202;8.698;2023-05-16T08:48:52;10.80;1.00
4813;DHT22;2420;51.202;8.698;2023-05-16T08:51:19;11.00;1.00
4813;DHT22;2420;51.202;8.698;2023-05-16T08:53:55;11.00;1.00
4813;DHT22;2420;51.202;8.698;2023-05-16T08:56:22;10.90;1.00
4813;DHT22;2420;51.202;8.698;2023-05-16T08:58:49;10.50;1.00
4813;DHT22;2420;51.202;8.698;2023-05-16T09:01:15;10.40;1.00
4813;DHT22;2420;51.202;8.698;2023-05-16T09:03:41;10.50;1.00
4813;DHT22;2420;51.202;8.698;2023-05-16T09:06:07;10.80;1.00
4813;DHT22;2420;51.202;8.698;2023-05-16T09:08:33;10.90;1.00
4813;DHT22;2420;51.202;8.698;2023-05-16T09:11:00;11.20;1.00
4813;DHT22;2420;51.202;8.698;2023-05-16T09:13:26;11.10;1.00
4813;DHT22;2420;51.202;8.698;2023-05-16T09:16:27;11.50;1.00
4813;DHT22;2420;51.202;8.698;2023-05-16T09:18:54;11.70;1.00
4813;DHT22;2420;51.202;8.698;2023-05-16T09:21:22;11.60;1.00
4813;DHT22;2420;51.202;8.698;2023-05-16T09:23:48;11.30;1.00
4813;DHT22;2420;51.202;8.698;2023-05-16T09:26:14;10.90;1.00
4813;DHT22;2420;51.202;8.698;2023-05-16T09:28:40;10.80;1.00
4813;DHT22;2420;51.202;8.698;2023-05-16T09:31:23;11.00;1.00
4813;DHT22;2420;51.202;8.698;2023-05-16T09:33:51;11.60;1.00
4813;DHT22;2420;51.202;8.698;2023-05-16T09:36:17;12.10;1.00
4813;DHT22;2420;51.202;8.698;2023-05-16T09:38:43;12.70;1.00
4813;DHT22;2420;51.202;8.698;2023-05-16T09:41:12;13.00;1.00
4813;DHT22;2420;51.202;8.698;2023-05-16T09:43:39;12.70;1.00
4813;DHT22;2420;51.202;8.698;2023-05-16T09:46:05;12.30;1.00
4813;DHT22;2420;51.202;8.698;2023-05-16T09:48:36;11.80;1.00
4813;DHT22;2420;51.202;8.698;2023-05-16T09:51:04;11.90;1.00
4813;DHT22;2420;51.202;8.698;2023-05-16T09:53:31;12.00;1.00
4813;DHT22;2420;51.202;8.698;2023-05-16T09:56:05;12.40;1.00
4813;DHT22;2420;51.202;8.698;2023-05-16T09:58:33;13.00;1.00
4813;DHT22;2420;51.202;8.698;2023-05-16T10:01:00;13.30;1.00
4813;DHT22;2420;51.202;8.698;2023-05-16T10:03:26;13.00;1.00
4813;DHT22;2420;51.202;8.698;2023-05-16T10:05:53;12.70;1.00
4813;DHT22;2420;51.202;8.698;2023-05-16T10:08:24;12.40;1.00
4813;DHT22;2420;51.202;8.698;2023-05-16T10:10:51;12.70;1.00
4813;DHT22;2420;51.202;8.698;2023-05-16T10:13:20;12.60;1.00
4813;DHT22;2420;51.202;8.698;2023-05-16T10:15:50;12.80;1.00
4813;DHT22;2420;51.202;8.698;2023-05-16T10:18:20;13.00;1.00
4813;DHT22;2420;51.202;8.698;2023-05-16T10:20:48;12.90;1.00
4813;DHT22;2420;51.202;8.698;2023-05-16T10:23:18;12.90;1.00
4813;DHT22;2420;51.202;8.698;2023-05-16T10:25:45;13.30;1.00
4813;DHT22;2420;51.202;8.698;2023-05-16T10:28:12;13.60;1.00
4813;DHT22;2420;51.202;8.698;2023-05-16T10:30:44;13.90;1.00
4813;DHT22;2420;51.202;8.698;2023-05-16T10:33:14;13.80;1.00
4813;DHT22;2420;51.202;8.698;2023-05-16T10:35:41;14.00;1.00
4813;DHT22;2420;51.202;8.698;2023-05-16T10:38:07;14.50;1.00
4813;DHT22;2420;51.202;8.698;2023-05-16T10:40:35;14.30;1.00
4813;DHT22;2420;51.202;8.698;2023-05-16T10:43:03;14.20;1.00
4813;DHT22;2420;51.202;8.698;2023-05-16T10:45:30;14.00;1.00
4813;DHT22;2420;51.202;8.698;2023-05-16T10:47:57;13.80;1.00
4813;DHT22;2420;51.202;8.698;2023-05-16T10:50:43;13.50;1.00
4813;DHT22;2420;51.202;8.698;2023-05-16T10:53:19;13.40;1.00
4813;DHT22;2420;51.202;8.698;2023-05-16T10:58:43;13.00;1.00
4813;DHT22;2420;51.202;8.698;2023-05-16T11:04:05;13.90;1.00
4813;DHT22;2420;51.202;8.698;2023-05-16T11:14:28;13.90;1.00
4813;DHT22;2420;51.202;8.698;2023-05-16T11:19:37;13.40;1.00
4813;DHT22;2420;51.202;8.698;2023-05-16T11:22:07;13.70;1.00
4813;DHT22;2420;51.202;8.698;2023-05-16T11:24:37;14.00;1.00
4813;DHT22;2420;51.202;8.698;2023-05-16T11:27:04;14.10;1.00
4813;DHT22;2420;51.202;8.698;2023-05-16T11:29:34;14.20;1.00
4813;DHT22;2420;51.202;8.698;2023-05-16T11:32:01;14.60;1.00
4813;DHT22;2420;51.202;8.698;2023-05-16T11:34:28;15.10;1.00
4813;DHT22;2420;51.202;8.698;2023-05-16T11:36:54;15.30;1.00
4813;DHT22;2420;51.202;8.698;2023-05-16T11:39:21;15.20;1.00
4813;DHT22;2420;51.202;8.698;2023-05-16T11:41:49;15.00;1.00
4813;DHT22;2420;51.202;8.698;2023-05-16T11:44:15;14.60;1.00
4813;DHT22;2420;51.202;8.698;2023-05-16T11:46:41;14.50;1.00
4813;DHT22;2420;51.202;8.698;2023-05-16T11:49:08;14.20;1.00
4813;DHT22;2420;51.202;8.698;2023-05-16T11:51:37;14.00;1.00
4813;DHT22;2420;51.202;8.698;2023-05-16T11:54:03;13.80;1.00
4813;DHT22;2420;51.202;8.698;2023-05-16T11:56:34;13.90;1.00
4813;DHT22;2420;51.202;8.698;2023-05-16T11:59:00;14.00;1.00
4813;DHT22;2420;51.202;8.698;2023-05-16T12:01:34;14.40;1.00
4813;DHT22;2420;51.202;8.698;2023-05-16T12:04:00;14.40;1.00
4813;DHT22;2420;51.202;8.698;2023-05-16T12:06:26;14.30;1.00
4813;DHT22;2420;51.202;8.698;2023-05-16T12:08:53;13.50;1.00
4813;DHT22;2420;51.202;8.698;2023-05-16T12:11:19;13.40;1.00
4813;DHT22;2420;51.202;8.698;2023-05-16T12:13:47;13.50;1.00
4813;DHT22;2420;51.202;8.698;2023-05-16T12:16:13;13.60;1.00
4813;DHT22;2420;51.202;8.698;2023-05-16T12:18:38;13.80;1.00
4813;DHT22;2420;51.202;8.698;2023-05-16T12:21:05;14.30;1.00
4813;DHT22;2420;51.202;8.698;2023-05-16T12:23:32;14.50;1.00
4813;DHT22;2420;51.202;8.698;2023-05-16T12:25:58;14.60;1.00
4813;DHT22;2420;51.202;8.698;2023-05-16T12:28:32;14.30;1.00
4813;DHT22;2420;51.202;8.698;2023-05-16T12:31:02;14.20;1.00
4813;DHT22;2420;51.202;8.698;2023-05-16T12:33:28;14.10;1.00
4813;DHT22;2420;51.202;8.698;2023-05-16T12:35:54;14.30;1.00
4813;DHT22;2420;51.202;8.698;2023-05-16T12:38:20;14.60;1.00
4813;DHT22;2420;51.202;8.698;2023-05-16T12:40:46;14.70;1.00
4813;DHT22;2420;51.202;8.698;2023-05-16T12:43:18;14.50;1.00
4813;DHT22;2420;51.202;8.698;2023-05-16T12:45:51;14.60;1.00
4813;DHT22;2420;51.202;8.698;2023-05-16T12:48:17;14.00;1.00
4813;DHT22;2420;51.202;8.698;2023-05-16T12:50:43;13.80;1.00
4813;DHT22;2420;51.202;8.698;2023-05-16T12:53:15;13.80;1.00
4813;DHT22;2420;51.202;8.698;2023-05-16T12:55:42;13.80;1.00
4813;DHT22;2420;51.202;8.698;2023-05-16T12:58:08;13.90;1.00
4813;DHT22;2420;51.202;8.698;2023-05-16T13:00:35;13.80;1.00
4813;DHT22;2420;51.202;8.698;2023-05-16T13:03:06;14.30;1.00
4813;DHT22;2420;51.202;8.698;2023-05-16T13:05:32;14.40;1.00
4813;DHT22;2420;51.202;8.698;2023-05-16T13:07:58;14.60;1.00
4813;DHT22;2420;51.202;8.698;2023-05-16T13:10:24;14.60;1.00
4813;DHT22;2420;51.202;8.698;2023-05-16T13:12:51;14.50;1.00
4813;DHT22;2420;51.202;8.698;2023-05-16T13:15:16;14.50;1.00
4813;DHT22;2420;51.202;8.698;2023-05-16T13:17:42;14.90;1.00
4813;DHT22;2420;51.202;8.698;2023-05-16T13:20:09;15.00;1.00
4813;DHT22;2420;51.202;8.698;2023-05-16T13:22:42;14.80;1.00
4813;DHT22;2420;51.202;8.698;2023-05-16T13:25:09;14.60;1.00
4813;DHT22;2420;51.202;8.698;2023-05-16T13:27:35;14.50;1.00
4813;DHT22;2420;51.202;8.698;2023-05-16T13:30:01;14.30;1.00
4813;DHT22;2420;51.202;8.698;2023-05-16T13:32:28;14.20;1.00
4813;DHT22;2420;51.202;8.698;2023-05-16T13:34:54;14.00;1.00
4813;DHT22;2420;51.202;8.698;2023-05-16T13:37:19;14.10;1.00
4813;DHT22;2420;51.202;8.698;2023-05-16T13:39:45;13.90;1.00
4813;DHT22;2420;51.202;8.698;2023-05-16T13:42:10;14.20;1.00
4813;DHT22;2420;51.202;8.698;2023-05-16T13:44:36;14.30;1.00
4813;DHT22;2420;51.202;8.698;2023-05-16T13:47:02;14.50;1.00
4813;DHT22;2420;51.202;8.698;2023-05-16T13:49:27;14.40;1.00
4813;DHT22;2420;51.202;8.698;2023-05-16T13:51:53;14.40;1.00
4813;DHT22;2420;51.202;8.698;2023-05-16T13:54:19;14.10;1.00
4813;DHT22;2420;51.202;8.698;2023-05-16T13:56:46;14.00;1.00
4813;DHT22;2420;51.202;8.698;2023-05-16T13:59:12;13.80;1.00
4813;DHT22;2420;51.202;8.698;2023-05-16T14:01:37;13.90;1.00
4813;DHT22;2420;51.202;8.698;2023-05-16T14:04:03;13.80;1.00
4813;DHT22;2420;51.202;8.698;2023-05-16T14:06:28;13.70;1.00
4813;DHT22;2420;51.202;8.698;2023-05-16T14:08:54;13.50;1.00
4813;DHT22;2420;51.202;8.698;2023-05-16T14:11:20;13.60;1.00
4813;DHT22;2420;51.202;8.698;2023-05-16T14:13:50;13.60;1.00
4813;DHT22;2420;51.202;8.698;2023-05-16T14:16:16;13.70;1.00
4813;DHT22;2420;51.202;8.698;2023-05-16T14:18:42;13.70;1.00
4813;DHT22;2420;51.202;8.698;2023-05-16T14:21:08;13.50;1.00
4813;DHT22;2420;51.202;8.698;2023-05-16T14:23:33;13.50;1.00
4813;DHT22;2420;51.202;8.698;2023-05-16T14:25:59;13.40;1.00
4813;DHT22;2420;51.202;8.698;2023-05-16T14:28:25;13.60;1.00
4813;DHT22;2420;51.202;8.698;2023-05-16T14:30:50;13.60;1.00
4813;DHT22;2420;51.202;8.698;2023-05-16T14:33:16;13.80;1.00
4813;DHT22;2420;51.202;8.698;2023-05-16T14:35:42;14.00;1.00
4813;DHT22;2420;51.202;8.698;2023-05-16T14:38:07;14.20;1.00
4813;DHT22;2420;51.202;8.698;2023-05-16T14:40:34;14.30;1.00
4813;DHT22;2420;51.202;8.698;2023-05-16T14:42:59;14.30;1.00
4813;DHT22;2420;51.202;8.698;2023-05-16T14:45:28;14.50;1.00
4813;DHT22;2420;51.202;8.698;2023-05-16T14:47:53;14.40;1.00
4813;DHT22;2420;51.202;8.698;2023-05-16T14:50:19;14.30;1.00
4813;DHT22;2420;51.202;8.698;2023-05-16T14:52:45;14.00;1.00
4813;DHT22;2420;51.202;8.698;2023-05-16T14:55:10;14.00;1.00
4813;DHT22;2420;51.202;8.698;2023-05-16T14:57:36;14.00;1.00
4813;DHT22;2420;51.202;8.698;2023-05-16T15:00:02;13.80;1.00
4813;DHT22;2420;51.202;8.698;2023-05-16T15:02:29;13.90;1.00
4813;DHT22;2420;51.202;8.698;2023-05-16T15:04:55;14.20;1.00
4813;DHT22;2420;51.202;8.698;2023-05-16T15:07:21;14.20;1.00
4813;DHT22;2420;51.202;8.698;2023-05-16T15:09:46;14.00;1.00
4813;DHT22;2420;51.202;8.698;2023-05-16T15:12:12;14.10;1.00
4813;DHT22;2420;51.202;8.698;2023-05-16T15:14:37;14.20;1.00
4813;DHT22;2420;51.202;8.698;2023-05-16T15:17:03;14.00;1.00
4813;DHT22;2420;51.202;8.698;2023-05-16T15:19:29;13.90;1.00
4813;DHT22;2420;51.202;8.698;2023-05-16T15:21:55;13.60;1.00
4813;DHT22;2420;51.202;8.698;2023-05-16T15:24:20;13.50;1.00
4813;DHT22;2420;51.202;8.698;2023-05-16T15:26:46;13.40;1.00
4813;DHT22;2420;51.202;8.698;2023-05-16T15:29:11;13.30;1.00
4813;DHT22;2420;51.202;8.698;2023-05-16T15:31:37;13.20;1.00
4813;DHT22;2420;51.202;8.698;2023-05-16T15:34:02;13.00;1.00
4813;DHT22;2420;51.202;8.698;2023-05-16T15:36:30;12.90;1.00
4813;DHT22;2420;51.202;8.698;2023-05-16T15:38:56;13.00;1.00
4813;DHT22;2420;51.202;8.698;2023-05-16T15:41:21;13.20;1.00
4813;DHT22;2420;51.202;8.698;2023-05-16T15:43:47;13.20;1.00
4813;DHT22;2420;51.202;8.698;2023-05-16T15:46:13;13.20;1.00
4813;DHT22;2420;51.202;8.698;2023-05-16T15:48:39;13.20;1.00
4813;DHT22;2420;51.202;8.698;2023-05-16T15:51:10;13.10;1.00
4813;DHT22;2420;51.202;8.698;2023-05-16T15:53:36;13.10;1.00
4813;DHT22;2420;51.202;8.698;2023-05-16T15:56:02;13.10;1.00
4813;DHT22;2420;51.202;8.698;2023-05-16T15:58:28;13.00;1.00
4813;DHT22;2420;51.202;8.698;2023-05-16T16:00:53;13.00;1.00
4813;DHT22;2420;51.202;8.698;2023-05-16T16:03:20;12.80;1.00
4813;DHT22;2420;51.202;8.698;2023-05-16T16:05:46;12.70;1.00
4813;DHT22;2420;51.202;8.698;2023-05-16T16:08:12;12.70;1.00
4813;DHT22;2420;51.202;8.698;2023-05-16T16:10:38;12.70;1.00
4813;DHT22;2420;51.202;8.698;2023-05-16T16:13:04;12.60;1.00
4813;DHT22;2420;51.202;8.698;2023-05-16T16:15:31;12.80;1.00
4813;DHT22;2420;51.202;8.698;2023-05-16T16:17:57;12.80;1.00
4813;DHT22;2420;51.202;8.698;2023-05-16T16:20:23;12.70;1.00
4813;DHT22;2420;51.202;8.698;2023-05-16T16:22:48;12.80;1.00
4813;DHT22;2420;51.202;8.698;2023-05-16T16:25:14;12.70;1.00
4813;DHT22;2420;51.202;8.698;2023-05-16T16:27:40;12.70;1.00
4813;DHT22;2420;51.202;8.698;2023-05-16T16:30:08;12.70;1.00
4813;DHT22;2420;51.202;8.698;2023-05-16T16:32:34;12.60;1.00
4813;DHT22;2420;51.202;8.698;2023-05-16T16:34:59;12.60;1.00
4813;DHT22;2420;51.202;8.698;2023-05-16T16:37:26;12.50;1.00
4813;DHT22;2420;51.202;8.698;2023-05-16T16:39:52;12.40;1.00
4813;DHT22;2420;51.202;8.698;2023-05-16T16:42:17;12.30;1.00
4813;DHT22;2420;51.202;8.698;2023-05-16T16:44:43;12.30;1.00
4813;DHT22;2420;51.202;8.698;2023-05-16T16:47:08;12.50;1.00
4813;DHT22;2420;51.202;8.698;2023-05-16T16:49:34;12.60;1.00